Time;durP1;ratioP1;P1;durP2;ratioP2;P2;SDS_P1;SDS_P2;PMS_P1;PMS_P2;Temp;Humidity;BMP_temperature;BMP_pressure;BME280_temperature;BME280_humidity;BME280_pressure;Samples;Min_cycle;Max_cycle;Signal;HPM_P1;HPM_P2
2023/01/20 00:00:38;;;;;;;4.80;2.83;;;-1.90;99.90;;;;;;5066546;28;20036;-35
2023/01/20 00:03:04;;;;;;;6.45;2.95;;;-1.80;99.90;;;;;;5066703;28;20399;-35
2023/01/20 00:05:29;;;;;;;6.63;3.45;;;-1.80;99.90;;;;;;5066752;28;20090;-35
2023/01/20 00:07:55;;;;;;;8.43;3.85;;;-1.80;99.90;;;;;;5067331;28;20041;-35
2023/01/20 00:10:21;;;;;;;9.05;3.78;;;-1.60;99.90;;;;;;5067898;28;20501;-35
2023/01/20 00:12:46;;;;;;;6.88;3.63;;;-1.80;99.90;;;;;;5067354;28;20044;-35
2023/01/20 00:15:12;;;;;;;8.07;4.18;;;-1.80;99.90;;;;;;5067156;28;20440;-35
2023/01/20 00:17:38;;;;;;;8.40;4.38;;;-2.00;99.90;;;;;;5066930;28;20474;-35
2023/01/20 00:20:04;;;;;;;7.07;4.03;;;-1.80;99.90;;;;;;5066892;28;20059;-35
2023/01/20 00:22:29;;;;;;;9.18;4.30;;;-1.80;99.90;;;;;;5067196;28;20051;-35
2023/01/20 00:24:55;;;;;;;11.88;5.38;;;-1.80;99.90;;;;;;5066597;28;20057;-35
2023/01/20 00:27:21;;;;;;;13.88;5.75;;;-1.70;99.90;;;;;;5066878;28;20044;-35
2023/01/20 00:29:47;;;;;;;10.88;5.13;;;-1.70;99.90;;;;;;5067015;28;20044;-36
2023/01/20 00:32:12;;;;;;;10.02;5.38;;;-1.70;99.90;;;;;;5067043;28;20044;-35
2023/01/20 00:34:38;;;;;;;11.43;6.00;;;-1.70;99.90;;;;;;5066186;28;20036;-35
2023/01/20 00:37:04;;;;;;;10.25;5.82;;;-1.60;99.90;;;;;;5066678;28;20489;-35
2023/01/20 00:39:29;;;;;;;11.23;6.32;;;-1.70;99.90;;;;;;5066765;28;20052;-35
2023/01/20 00:41:55;;;;;;;10.45;6.45;;;-1.50;99.90;;;;;;5066749;28;20083;-35
2023/01/20 00:44:21;;;;;;;14.13;6.95;;;-1.50;99.90;;;;;;5066643;28;20047;-35
2023/01/20 00:46:46;;;;;;;10.23;6.25;;;-1.40;99.90;;;;;;5066368;28;20048;-35
2023/01/20 00:49:12;;;;;;;13.63;7.18;;;-1.40;99.90;;;;;;5066019;28;20127;-35
2023/01/20 00:51:38;;;;;;;13.80;7.57;;;-1.10;99.90;;;;;;5066623;28;20136;-35
2023/01/20 00:54:03;;;;;;;13.38;7.35;;;-1.20;99.90;;;;;;5065955;28;20044;-35
2023/01/20 00:56:29;;;;;;;15.02;7.75;;;-1.20;99.90;;;;;;5066316;28;20044;-35
2023/01/20 00:58:55;;;;;;;15.35;7.25;;;-0.20;99.90;;;;;;5065813;28;20054;-35
2023/01/20 01:01:21;;;;;;;18.90;7.22;;;-1.00;99.90;;;;;;5065746;28;20103;-35
2023/01/20 01:03:47;;;;;;;18.20;8.02;;;-0.90;99.90;;;;;;5065957;28;20044;-35
2023/01/20 01:06:15;;;;;;;19.88;8.77;;;-0.80;99.90;;;;;;5066110;28;20044;-35
2023/01/20 01:08:42;;;;;;;19.58;9.57;;;-0.80;99.90;;;;;;5066185;28;20082;-35
2023/01/20 01:11:09;;;;;;;18.17;8.82;;;-0.80;99.90;;;;;;5066325;28;20049;-36
2023/01/20 01:13:37;;;;;;;20.27;9.65;;;-0.70;99.90;;;;;;5066091;28;20102;-35
2023/01/20 01:16:13;;;;;;;21.02;8.60;;;-0.50;99.90;;;;;;5065990;28;20440;-35
2023/01/20 01:18:40;;;;;;;21.13;10.55;;;-0.80;99.90;;;;;;5066067;28;20098;-35
2023/01/20 01:21:11;;;;;;;22.17;9.80;;;-0.60;99.90;;;;;;5065701;28;20044;-36
2023/01/20 01:23:37;;;;;;;25.45;9.85;;;-0.40;99.90;;;;;;5065439;28;20049;-35
2023/01/20 01:26:03;;;;;;;26.42;10.82;;;-0.50;99.90;;;;;;5065854;28;20067;-35
2023/01/20 01:28:29;;;;;;;25.85;11.07;;;-0.60;99.90;;;;;;5065782;28;20059;-35
2023/01/20 01:30:59;;;;;;;29.83;10.98;;;-0.40;99.90;;;;;;5065712;28;20451;-35
2023/01/20 01:33:25;;;;;;;29.92;11.90;;;-0.40;99.90;;;;;;5065765;28;20407;-35
2023/01/20 01:36:12;;;;;;;25.23;11.20;;;-0.30;99.90;;;;;;5065190;28;20048;-35
2023/01/20 01:38:38;;;;;;;29.95;12.43;;;-0.20;99.90;;;;;;5065431;28;20053;-35
2023/01/20 01:41:04;;;;;;;30.85;12.20;;;-0.30;99.90;;;;;;5065568;28;20524;-35
2023/01/20 01:43:35;;;;;;;30.23;12.07;;;-0.50;99.90;;;;;;5065288;28;20894;-35
2023/01/20 01:46:02;;;;;;;30.02;12.73;;;-0.30;99.90;;;;;;5065803;28;20070;-36
2023/01/20 01:48:42;;;;;;;28.60;12.18;;;-0.30;99.90;;;;;;5065826;28;20048;-35
2023/01/20 01:51:20;;;;;;;26.13;12.15;;;-0.30;99.90;;;;;;5065771;28;20048;-35
2023/01/20 01:53:56;;;;;;;31.02;12.27;;;-0.30;99.90;;;;;;5066189;28;20109;-35
2023/01/20 01:56:23;;;;;;;32.70;13.02;;;-0.50;99.90;;;;;;5064988;28;20036;-35
2023/01/20 01:58:52;;;;;;;27.90;13.10;;;-0.40;99.90;;;;;;5065578;28;20108;-35
2023/01/20 02:01:17;;;;;;;31.23;13.02;;;-0.30;99.90;;;;;;5065171;28;20158;-35
2023/01/20 02:04:03;;;;;;;31.77;13.98;;;-0.40;99.90;;;;;;5065402;28;20779;-35
2023/01/20 02:06:32;;;;;;;32.22;13.88;;;-0.40;99.90;;;;;;5064693;28;20506;-36
2023/01/20 02:09:02;;;;;;;29.73;13.50;;;-0.40;99.90;;;;;;5065061;28;20486;-35
2023/01/20 02:11:30;;;;;;;38.90;14.77;;;-0.40;99.90;;;;;;5065198;28;20040;-35
2023/01/20 02:13:57;;;;;;;34.60;14.50;;;-0.40;99.90;;;;;;5064771;28;20037;-35
2023/01/20 02:16:38;;;;;;;31.25;13.50;;;-0.40;99.90;;;;;;5064714;28;20047;-35
2023/01/20 02:19:03;;;;;;;32.60;14.35;;;-0.60;99.90;;;;;;5064892;28;20542;-36
2023/01/20 02:21:53;;;;;;;30.33;13.18;;;-0.70;99.90;;;;;;5065068;28;20079;-36
2023/01/20 02:24:48;;;;;;;28.85;14.32;;;-0.90;99.90;;;;;;5064349;28;20485;-36
2023/01/20 02:27:27;;;;;;;32.35;14.02;;;-0.70;99.90;;;;;;5065074;28;20218;-35
2023/01/20 02:30:20;;;;;;;31.40;13.95;;;-0.70;99.90;;;;;;5065191;28;20431;-35
2023/01/20 02:32:49;;;;;;;29.80;13.25;;;-0.70;99.90;;;;;;5065014;28;20044;-35
2023/01/20 02:35:20;;;;;;;31.17;13.45;;;-0.50;99.90;;;;;;5064916;28;20036;-35
2023/01/20 02:37:55;;;;;;;30.43;13.00;;;-0.60;99.90;;;;;;5065478;28;20127;-35
2023/01/20 02:40:30;;;;;;;28.75;14.32;;;-0.50;99.90;;;;;;5064466;28;20106;-36
2023/01/20 02:43:34;;;;;;;24.27;11.18;;;-0.40;99.90;;;;;;5064906;28;20051;-36
2023/01/20 02:46:10;;;;;;;23.85;11.55;;;-0.40;99.90;;;;;;4982704;28;20050;-36
2023/01/20 02:48:46;;;;;;;27.40;12.82;;;-0.30;99.90;;;;;;5054979;28;20055;-35
2023/01/20 02:51:27;;;;;;;26.58;13.00;;;-0.40;99.90;;;;;;5065226;28;20053;-35
2023/01/20 02:53:59;;;;;;;29.13;12.77;;;-0.30;99.90;;;;;;5065219;28;20047;-35
2023/01/20 02:56:28;;;;;;;27.95;13.77;;;-0.20;99.90;;;;;;5065020;28;20828;-35
2023/01/20 02:58:59;;;;;;;35.22;13.07;;;-0.10;99.90;;;;;;5064948;28;20509;-35
2023/01/20 03:01:34;;;;;;;22.93;12.23;;;-0.20;99.90;;;;;;5064477;28;20437;-36
2023/01/20 03:04:03;;;;;;;30.55;14.20;;;-0.20;99.90;;;;;;5064311;28;20397;-42
2023/01/20 03:06:34;;;;;;;29.40;14.65;;;-0.30;99.90;;;;;;5064015;28;20478;-35
2023/01/20 03:09:05;;;;;;;32.33;15.20;;;-0.20;99.90;;;;;;5065958;28;20052;-35
2023/01/20 03:11:33;;;;;;;32.05;14.38;;;-0.10;99.90;;;;;;5068604;28;20285;-35
2023/01/20 03:14:04;;;;;;;33.25;14.32;;;0.00;99.90;;;;;;5068760;28;20086;-35
2023/01/20 03:16:31;;;;;;;31.95;14.07;;;-0.20;99.90;;;;;;5068376;28;20043;-36
2023/01/20 03:18:57;;;;;;;36.50;15.65;;;-0.40;99.90;;;;;;5068520;28;20043;-35
2023/01/20 03:21:23;;;;;;;35.33;16.35;;;-0.40;99.90;;;;;;5068086;28;20592;-36
2023/01/20 03:23:56;;;;;;;36.28;16.30;;;-0.50;99.90;;;;;;5067487;28;20039;-36
2023/01/20 03:26:22;;;;;;;38.58;16.65;;;-0.60;99.90;;;;;;5067919;28;20145;-36
2023/01/20 03:28:49;;;;;;;37.20;17.05;;;-0.50;99.90;;;;;;5067614;28;20556;-36
2023/01/20 03:31:20;;;;;;;35.58;15.50;;;-0.60;99.90;;;;;;5067628;28;20032;-35
2023/01/20 03:33:47;;;;;;;37.03;16.15;;;-0.60;99.90;;;;;;5068306;28;20378;-35
2023/01/20 03:36:14;;;;;;;36.88;16.23;;;-0.60;99.90;;;;;;5067761;28;20044;-35
2023/01/20 03:38:39;;;;;;;43.65;18.05;;;-0.60;99.90;;;;;;5067425;28;20493;-35
2023/01/20 03:41:28;;;;;;;42.75;16.85;;;-0.60;99.90;;;;;;5067567;28;20041;-35
2023/01/20 03:44:05;;;;;;;43.50;17.27;;;-0.70;99.90;;;;;;5067632;28;20052;-35
2023/01/20 03:46:36;;;;;;;43.20;16.95;;;-0.60;99.90;;;;;;5067526;28;20056;-35
2023/01/20 03:49:36;;;;;;;46.90;19.30;;;-0.80;99.90;;;;;;5067845;28;20371;-36
2023/01/20 03:52:10;;;;;;;42.63;16.88;;;-1.00;99.90;;;;;;5067709;28;20080;-36
2023/01/20 03:54:52;;;;;;;42.13;18.05;;;-0.90;99.90;;;;;;5067152;28;20080;-35
2023/01/20 03:57:24;;;;;;;42.78;17.20;;;-0.70;99.90;;;;;;5067804;28;20052;-35
2023/01/20 03:59:51;;;;;;;43.00;18.25;;;-0.80;99.90;;;;;;5067934;28;20048;-35
2023/01/20 04:02:18;;;;;;;41.22;17.27;;;-0.80;99.90;;;;;;5067854;28;20045;-35
2023/01/20 04:04:47;;;;;;;47.53;18.98;;;-0.60;99.90;;;;;;5067347;28;20819;-35
2023/01/20 04:07:19;;;;;;;46.15;19.80;;;-0.60;99.90;;;;;;5067630;28;20179;-35
2023/01/20 04:09:49;;;;;;;45.58;18.00;;;-0.50;99.90;;;;;;5067502;28;20485;-37
2023/01/20 04:12:15;;;;;;;43.15;17.88;;;-0.50;99.90;;;;;;5067246;28;20079;-35
2023/01/20 04:14:41;;;;;;;46.80;18.45;;;-0.20;99.90;;;;;;5067241;28;20076;-35
2023/01/20 04:17:06;;;;;;;43.53;18.33;;;-0.40;99.90;;;;;;5067579;28;20842;-35
2023/01/20 04:19:32;;;;;;;49.85;19.33;;;-0.30;99.90;;;;;;5066943;28;20557;-35
2023/01/20 04:22:16;;;;;;;48.80;19.02;;;-0.40;99.90;;;;;;5067753;28;20043;-35
2023/01/20 04:24:53;;;;;;;53.60;20.30;;;-0.30;99.90;;;;;;5067268;28;20056;-35
2023/01/20 04:27:18;;;;;;;44.70;18.63;;;-0.50;99.90;;;;;;5067562;28;20390;-35
2023/01/20 04:29:44;;;;;;;45.58;18.02;;;-0.30;99.90;;;;;;5067751;28;20040;-35
2023/01/20 04:32:11;;;;;;;47.08;17.65;;;-0.40;99.90;;;;;;5067734;28;20657;-35
2023/01/20 04:34:37;;;;;;;54.67;18.98;;;-0.30;99.90;;;;;;5065510;28;20429;-36
2023/01/20 04:37:03;;;;;;;49.08;18.02;;;-0.30;99.90;;;;;;5067234;28;20044;-35
2023/01/20 04:39:29;;;;;;;43.33;16.88;;;-0.30;99.90;;;;;;5066715;28;20105;-35
2023/01/20 04:41:54;;;;;;;46.28;16.83;;;-0.30;99.90;;;;;;5067093;28;20059;-36
2023/01/20 04:44:20;;;;;;;40.42;16.88;;;-0.40;99.90;;;;;;5066869;28;20060;-35
2023/01/20 04:46:46;;;;;;;42.42;17.33;;;-0.30;99.90;;;;;;5066456;28;20044;-35
2023/01/20 04:49:12;;;;;;;46.90;18.73;;;-0.30;99.90;;;;;;5066214;28;20044;-35
2023/01/20 04:51:38;;;;;;;46.17;17.40;;;-0.30;99.90;;;;;;5066828;28;20112;-35
2023/01/20 04:54:04;;;;;;;45.53;16.90;;;-0.30;99.90;;;;;;5066798;28;20518;-35
2023/01/20 04:56:31;;;;;;;42.15;16.98;;;-0.30;99.90;;;;;;5067297;28;20043;-35
2023/01/20 04:58:56;;;;;;;46.70;18.08;;;-0.20;99.90;;;;;;5066669;28;20125;-36
2023/01/20 05:01:22;;;;;;;36.67;14.75;;;-0.30;99.90;;;;;;5066133;28;20075;-35
2023/01/20 05:03:48;;;;;;;47.28;15.77;;;-0.30;99.90;;;;;;5066283;28;20044;-35
2023/01/20 05:06:13;;;;;;;38.67;15.63;;;-0.20;99.90;;;;;;5066581;28;20049;-36
2023/01/20 05:08:39;;;;;;;38.30;15.52;;;-0.40;99.90;;;;;;5066403;28;20071;-35
2023/01/20 05:11:05;;;;;;;39.58;15.50;;;-0.30;99.90;;;;;;5066167;28;20040;-35
2023/01/20 05:13:32;;;;;;;43.25;15.20;;;-0.20;99.90;;;;;;5065906;28;20052;-35
2023/01/20 05:15:58;;;;;;;40.25;14.75;;;-0.20;99.90;;;;;;5065924;28;20052;-35
2023/01/20 05:18:23;;;;;;;38.53;15.25;;;-0.30;99.90;;;;;;5065801;28;20044;-36
2023/01/20 05:20:49;;;;;;;38.08;15.25;;;-0.30;99.90;;;;;;5066007;28;20101;-36
2023/01/20 05:23:16;;;;;;;36.58;14.52;;;-0.30;99.90;;;;;;5065903;28;20479;-36
2023/01/20 05:25:41;;;;;;;36.67;15.38;;;-0.30;99.90;;;;;;5066037;28;20131;-35
2023/01/20 05:28:07;;;;;;;39.78;14.27;;;-0.30;99.90;;;;;;5066603;28;20439;-35
2023/01/20 05:30:33;;;;;;;35.85;13.55;;;-0.30;99.90;;;;;;5065448;28;20048;-35
2023/01/20 05:32:58;;;;;;;33.17;13.95;;;-0.20;99.90;;;;;;5065904;28;20058;-35
2023/01/20 05:35:24;;;;;;;34.75;13.93;;;-0.30;99.90;;;;;;5066230;28;20643;-35
2023/01/20 05:37:54;;;;;;;34.97;14.68;;;-0.40;99.90;;;;;;5066172;28;20050;-35
2023/01/20 05:40:20;;;;;;;36.72;13.52;;;-0.20;99.90;;;;;;5066531;28;20386;-35
2023/01/20 05:42:45;;;;;;;36.42;13.45;;;-0.20;99.90;;;;;;5066127;28;20045;-35
2023/01/20 05:45:11;;;;;;;34.63;13.95;;;-0.20;99.90;;;;;;5065910;28;20102;-35
2023/01/20 05:47:36;;;;;;;35.97;14.27;;;-0.20;99.90;;;;;;5065702;28;20494;-35
2023/01/20 05:50:03;;;;;;;36.92;14.25;;;0.00;99.90;;;;;;5065560;28;20044;-36
2023/01/20 05:52:29;;;;;;;38.35;14.85;;;-0.40;99.90;;;;;;5065551;28;20043;-35
2023/01/20 05:54:55;;;;;;;37.75;14.82;;;-0.30;99.90;;;;;;5065662;28;20036;-36
2023/01/20 05:57:24;;;;;;;32.72;13.82;;;-0.20;99.90;;;;;;5065650;28;20613;-35
2023/01/20 05:59:50;;;;;;;37.30;14.70;;;-0.20;99.90;;;;;;5064990;28;20051;-36
2023/01/20 06:02:18;;;;;;;32.97;14.55;;;-0.30;99.90;;;;;;5064482;28;20048;-35
2023/01/20 06:04:46;;;;;;;41.50;15.55;;;-0.20;99.90;;;;;;5065348;28;20049;-35
2023/01/20 06:07:13;;;;;;;37.35;14.07;;;-0.20;99.90;;;;;;5065542;28;20029;-35
2023/01/20 06:09:39;;;;;;;34.42;13.50;;;-0.20;99.90;;;;;;5066230;28;20040;-35
2023/01/20 06:12:04;;;;;;;37.90;15.45;;;-0.30;99.90;;;;;;5065881;28;20121;-36
2023/01/20 06:14:30;;;;;;;36.15;15.18;;;-0.20;99.90;;;;;;5065694;28;20098;-35
2023/01/20 06:16:56;;;;;;;37.20;14.82;;;-0.20;99.90;;;;;;5065537;28;20518;-35
2023/01/20 06:19:21;;;;;;;37.10;16.02;;;-0.20;99.90;;;;;;5065557;28;20039;-36
2023/01/20 06:21:47;;;;;;;41.88;17.02;;;0.20;99.90;;;;;;5065877;28;20037;-35
2023/01/20 06:24:13;;;;;;;40.88;16.50;;;-0.20;99.90;;;;;;5065503;28;20673;-35
2023/01/20 06:26:38;;;;;;;37.78;17.08;;;-0.10;99.90;;;;;;5065584;28;20048;-35
2023/01/20 06:29:04;;;;;;;40.60;17.10;;;-0.20;99.90;;;;;;5065475;28;20583;-35
2023/01/20 06:31:30;;;;;;;42.88;17.70;;;-0.30;99.90;;;;;;5065649;28;20047;-35
2023/01/20 06:33:55;;;;;;;40.78;16.38;;;-0.20;99.90;;;;;;5065048;28;20036;-36
2023/01/20 06:36:22;;;;;;;37.60;17.45;;;-0.20;99.90;;;;;;5064868;28;20094;-35
2023/01/20 06:38:49;;;;;;;47.20;17.92;;;-0.20;99.90;;;;;;5065189;28;20041;-35
2023/01/20 06:41:16;;;;;;;43.75;17.52;;;0.10;99.90;;;;;;5064922;28;20097;-35
2023/01/20 06:43:43;;;;;;;42.83;17.63;;;-0.20;99.90;;;;;;5067708;28;20048;-35
2023/01/20 06:46:11;;;;;;;43.65;17.60;;;-0.20;99.90;;;;;;5068857;28;20048;-35
2023/01/20 06:48:37;;;;;;;39.40;17.02;;;-0.20;99.90;;;;;;5068943;28;20120;-35
2023/01/20 06:51:05;;;;;;;39.65;18.20;;;-0.20;99.90;;;;;;5069051;28;20440;-35
2023/01/20 06:53:30;;;;;;;44.45;18.40;;;-0.30;99.90;;;;;;5068735;28;20521;-35
2023/01/20 06:55:57;;;;;;;38.08;17.55;;;-0.10;99.90;;;;;;5069046;28;20048;-35
2023/01/20 06:58:25;;;;;;;43.45;18.05;;;-0.20;99.90;;;;;;5068632;28;20554;-35
2023/01/20 07:00:51;;;;;;;47.53;19.70;;;-0.20;99.90;;;;;;5068601;28;20102;-35
2023/01/20 07:03:17;;;;;;;47.78;19.77;;;-0.10;99.90;;;;;;5068267;28;20051;-35
2023/01/20 07:05:42;;;;;;;48.17;19.80;;;0.40;99.90;;;;;;5068634;28;20037;-35
2023/01/20 07:08:08;;;;;;;47.92;19.55;;;-0.30;99.90;;;;;;5068765;28;20044;-36
2023/01/20 07:10:35;;;;;;;46.25;18.08;;;-0.20;99.90;;;;;;5068761;28;20051;-35
2023/01/20 07:13:00;;;;;;;46.60;18.67;;;-0.30;99.90;;;;;;5068429;28;20102;-35
2023/01/20 07:15:26;;;;;;;53.08;20.95;;;-0.20;99.90;;;;;;5068670;28;20451;-36
2023/01/20 07:17:52;;;;;;;50.05;20.52;;;-0.20;99.90;;;;;;5068578;28;20040;-35
2023/01/20 07:20:17;;;;;;;48.80;20.48;;;-0.20;99.90;;;;;;5050251;28;20041;-35
2023/01/20 07:22:43;;;;;;;49.15;20.50;;;-0.40;99.90;;;;;;5068237;28;20048;-36
2023/01/20 07:25:09;;;;;;;51.50;21.98;;;-0.10;99.90;;;;;;5066794;28;20117;-35
2023/01/20 07:27:34;;;;;;;53.58;20.63;;;0.40;99.90;;;;;;5068506;28;20040;-35
2023/01/20 07:30:00;;;;;;;55.40;20.88;;;-0.20;99.90;;;;;;5068123;28;20048;-35
2023/01/20 07:32:29;;;;;;;54.28;22.15;;;-0.10;99.90;;;;;;5068673;28;20041;-35
2023/01/20 07:34:55;;;;;;;49.35;21.98;;;-0.20;99.90;;;;;;5068385;28;20424;-35
2023/01/20 07:37:21;;;;;;;51.75;21.60;;;0.20;99.90;;;;;;5068432;28;20086;-36
2023/01/20 07:39:46;;;;;;;49.42;21.27;;;-0.10;99.90;;;;;;5068578;28;20060;-36
2023/01/20 07:42:12;;;;;;;57.83;21.95;;;-0.10;99.90;;;;;;5067987;28;20045;-36
2023/01/20 07:44:37;;;;;;;64.38;24.83;;;-0.10;99.90;;;;;;5068191;28;20041;-35
2023/01/20 07:47:03;;;;;;;56.35;24.17;;;-0.10;99.90;;;;;;5067572;28;20037;-35
2023/01/20 07:49:29;;;;;;;52.47;20.95;;;-0.20;99.90;;;;;;5068522;28;20037;-36
2023/01/20 07:51:54;;;;;;;58.80;22.92;;;0.00;99.90;;;;;;5068270;28;20504;-35
2023/01/20 07:54:20;;;;;;;61.88;24.63;;;0.00;99.90;;;;;;5066804;28;20059;-35
2023/01/20 07:56:46;;;;;;;52.88;22.77;;;-0.30;99.90;;;;;;5067927;28;20047;-35
2023/01/20 07:59:12;;;;;;;57.05;23.15;;;0.60;99.90;;;;;;5067918;28;20037;-35
2023/01/20 08:01:37;;;;;;;58.88;23.73;;;0.00;99.90;;;;;;5067020;28;20139;-35
2023/01/20 08:04:03;;;;;;;59.55;23.42;;;-0.10;99.90;;;;;;5067894;28;20041;-35
2023/01/20 08:06:29;;;;;;;57.08;26.05;;;0.00;99.90;;;;;;5068191;28;20374;-35
2023/01/20 08:08:58;;;;;;;56.17;22.90;;;0.00;99.90;;;;;;5067796;28;20083;-35
2023/01/20 08:11:23;;;;;;;59.38;25.00;;;0.00;99.90;;;;;;5067695;28;20068;-35
2023/01/20 08:13:49;;;;;;;50.35;23.33;;;0.00;99.90;;;;;;5067447;28;20052;-35
2023/01/20 08:16:16;;;;;;;57.50;26.10;;;0.00;99.90;;;;;;5067335;28;20036;-35
2023/01/20 08:18:43;;;;;;;58.50;26.00;;;0.10;99.90;;;;;;5066833;28;20040;-35
2023/01/20 08:21:23;;;;;;;60.72;26.35;;;0.10;99.90;;;;;;5066738;28;20592;-35
2023/01/20 08:23:49;;;;;;;62.50;26.00;;;0.00;99.90;;;;;;5066311;28;20044;-35
2023/01/20 08:26:15;;;;;;;52.95;24.05;;;0.10;99.90;;;;;;5067457;28;20105;-35
2023/01/20 08:28:41;;;;;;;55.00;24.92;;;0.20;99.90;;;;;;5067160;28;20044;-35
2023/01/20 08:31:19;;;;;;;61.85;27.85;;;0.00;99.90;;;;;;5066883;28;20044;-35
2023/01/20 08:33:46;;;;;;;53.05;23.70;;;0.30;99.90;;;;;;5067088;28;20123;-35
2023/01/20 08:36:17;;;;;;;60.22;25.42;;;0.40;99.90;;;;;;5067359;28;20044;-35
2023/01/20 08:38:44;;;;;;;56.83;25.00;;;0.10;99.90;;;;;;5066812;28;20052;-35
2023/01/20 08:41:16;;;;;;;62.72;26.27;;;0.10;99.90;;;;;;5067190;28;20045;-35
2023/01/20 08:43:42;;;;;;;59.55;28.00;;;0.20;99.90;;;;;;5066933;28;20090;-35
2023/01/20 08:46:11;;;;;;;57.42;25.73;;;0.10;99.90;;;;;;5066962;28;20083;-35
2023/01/20 08:48:38;;;;;;;57.45;23.60;;;0.40;99.90;;;;;;5067202;28;20040;-35
2023/01/20 08:51:06;;;;;;;57.58;24.77;;;0.10;99.90;;;;;;5067092;28;20044;-35
2023/01/20 08:53:32;;;;;;;47.20;21.55;;;0.10;99.90;;;;;;5066640;28;20557;-35
2023/01/20 08:56:00;;;;;;;52.90;23.65;;;0.20;99.90;;;;;;5065836;28;20098;-35
2023/01/20 08:58:27;;;;;;;54.67;24.15;;;0.40;99.90;;;;;;5064888;28;20795;-35
2023/01/20 09:00:53;;;;;;;60.20;25.83;;;0.20;99.90;;;;;;5066254;28;20051;-35
2023/01/20 09:03:19;;;;;;;54.42;24.48;;;0.20;99.90;;;;;;5066433;28;20040;-35
2023/01/20 09:05:45;;;;;;;53.08;23.10;;;0.20;99.90;;;;;;5066767;28;20052;-35
2023/01/20 09:08:11;;;;;;;51.38;22.15;;;0.20;99.90;;;;;;5066339;28;20074;-35
2023/01/20 09:10:36;;;;;;;55.65;21.42;;;0.20;99.90;;;;;;5066475;28;20072;-35
2023/01/20 09:13:02;;;;;;;47.28;21.90;;;0.20;99.90;;;;;;5066592;28;20098;-35
2023/01/20 09:15:28;;;;;;;44.78;21.88;;;0.20;99.90;;;;;;5066041;28;20046;-35
2023/01/20 09:17:53;;;;;;;45.42;21.10;;;0.20;99.90;;;;;;5066106;28;20082;-35
2023/01/20 09:20:19;;;;;;;50.42;22.45;;;0.40;99.90;;;;;;5066106;28;20075;-36
2023/01/20 09:22:46;;;;;;;47.75;22.05;;;0.50;99.90;;;;;;5066577;28;20102;-35
2023/01/20 09:25:12;;;;;;;51.40;21.27;;;0.20;99.90;;;;;;5066370;28;20456;-35
2023/01/20 09:27:37;;;;;;;47.60;20.58;;;0.30;99.90;;;;;;5066238;28;20051;-35
2023/01/20 09:30:04;;;;;;;44.58;21.17;;;0.30;99.90;;;;;;5065840;28;20492;-35
2023/01/20 09:32:31;;;;;;;50.53;22.05;;;0.10;99.90;;;;;;5065797;28;20158;-38
2023/01/20 09:34:57;;;;;;;53.38;24.67;;;0.30;99.90;;;;;;5066700;28;20044;-38
2023/01/20 09:46:06;;;;;;;47.08;22.85;;;0.20;99.90;;;;;;5066442;28;20102;-38
2023/01/20 09:54:58;;;;;;;47.65;21.40;;;0.30;99.90;;;;;;5065904;28;20074;-38
2023/01/20 09:57:26;;;;;;;49.85;20.85;;;0.40;99.90;;;;;;5066463;28;20040;-38
2023/01/20 10:00:20;;;;;;;52.20;22.90;;;0.40;99.90;;;;;;5065872;28;20051;-41
2023/01/20 10:02:53;;;;;;;49.42;23.20;;;0.70;99.90;;;;;;5033489;28;20052;-36
2023/01/20 10:05:24;;;;;;;53.58;24.20;;;0.60;99.90;;;;;;5060694;28;20044;-37
2023/01/20 10:07:56;;;;;;;52.67;23.90;;;0.70;99.90;;;;;;5064184;28;20502;-37
2023/01/20 10:10:35;;;;;;;;;;;-0.50;99.90;;;;;;5062312;28;20055;-38
2023/01/20 10:13:19;;;;;;;51.92;22.25;;;0.40;99.90;;;;;;5064186;28;20372;-38
2023/01/20 10:15:53;;;;;;;48.83;22.15;;;0.40;99.90;;;;;;5063861;28;20032;-38
2023/01/20 10:18:38;;;;;;;47.05;21.95;;;0.50;99.90;;;;;;5067997;28;20047;-36
2023/01/20 10:21:10;;;;;;;46.03;22.15;;;0.60;99.90;;;;;;5070719;28;20040;-37
2023/01/20 10:23:49;;;;;;;44.38;19.52;;;0.60;99.90;;;;;;5069609;28;20040;-37
2023/01/20 10:26:30;;;;;;;49.40;21.95;;;0.60;99.90;;;;;;5070406;28;20048;-37
2023/01/20 10:29:05;;;;;;;48.67;23.15;;;0.50;99.90;;;;;;5071027;28;20133;-37
2023/01/20 10:31:41;;;;;;;47.90;22.67;;;0.60;99.90;;;;;;5070352;28;20873;-37
2023/01/20 10:34:11;;;;;;;52.78;23.25;;;0.70;99.90;;;;;;5070857;28;20056;-37
2023/01/20 10:36:42;;;;;;;51.55;23.30;;;0.60;99.90;;;;;;5070422;28;20044;-37
2023/01/20 10:39:54;;;;;;;51.95;23.27;;;1.10;99.90;;;;;;5070992;28;20080;-37
2023/01/20 10:42:21;;;;;;;49.55;22.50;;;0.50;99.90;;;;;;5071547;28;20047;-37
2023/01/20 10:44:49;;;;;;;47.35;22.90;;;0.60;99.90;;;;;;5071714;28;20037;-37
2023/01/20 10:47:16;;;;;;;54.17;22.05;;;0.70;99.90;;;;;;5071774;28;20465;-37
2023/01/20 10:50:06;;;;;;;52.40;23.60;;;0.80;99.90;;;;;;5071667;28;20044;-37
2023/01/20 10:52:44;;;;;;;48.65;22.45;;;0.70;99.90;;;;;;5071660;28;20043;-37
2023/01/20 10:55:31;;;;;;;47.35;21.00;;;0.80;99.90;;;;;;5071827;28;20201;-37
2023/01/20 10:58:07;;;;;;;43.30;21.13;;;0.80;99.90;;;;;;5052977;28;20079;-36
2023/01/20 11:00:34;;;;;;;47.33;20.50;;;0.90;99.90;;;;;;5070864;28;20036;-35
2023/01/20 11:03:02;;;;;;;50.33;24.67;;;1.00;99.90;;;;;;5061600;28;20143;-36
2023/01/20 11:05:31;;;;;;;49.28;21.85;;;1.00;99.90;;;;;;5069323;28;20470;-36
2023/01/20 11:07:59;;;;;;;48.30;21.55;;;1.00;99.90;;;;;;5070040;28;20168;-36
2023/01/20 11:10:28;;;;;;;45.92;21.83;;;1.10;99.90;;;;;;5070256;28;20047;-37
2023/01/20 11:12:56;;;;;;;51.10;23.73;;;1.10;99.90;;;;;;5069379;28;20052;-36
2023/01/20 11:15:30;;;;;;;46.17;22.75;;;1.40;99.90;;;;;;5069981;28;20029;-37
2023/01/20 11:18:14;;;;;;;49.92;23.00;;;1.10;99.90;;;;;;5069549;28;20080;-37
2023/01/20 11:20:44;;;;;;;48.70;23.00;;;1.50;99.90;;;;;;5069703;28;20504;-37
2023/01/20 11:23:26;;;;;;;51.25;23.35;;;1.40;99.90;;;;;;5070001;28;20048;-36
2023/01/20 11:26:15;;;;;;;46.45;23.30;;;1.20;99.90;;;;;;5069275;28;20156;-36
2023/01/20 11:29:21;;;;;;;47.55;22.20;;;1.10;99.90;;;;;;5067841;28;20101;-37
2023/01/20 11:31:50;;;;;;;51.75;23.77;;;1.00;99.90;;;;;;5054627;28;20588;-37
2023/01/20 11:34:33;;;;;;;48.53;22.60;;;1.00;99.90;;;;;;5065949;28;20053;-37
2023/01/20 11:37:05;;;;;;;43.13;21.40;;;1.10;99.90;;;;;;5066082;28;20036;-37
2023/01/20 11:39:50;;;;;;;45.28;22.10;;;1.10;99.90;;;;;;5065862;28;20080;-37
2023/01/20 11:42:24;;;;;;;48.47;22.23;;;1.10;99.90;;;;;;5025822;28;20562;-38
2023/01/20 11:44:52;;;;;;;41.95;21.98;;;1.10;99.90;;;;;;5061030;28;20461;-38
2023/01/20 11:47:23;;;;;;;43.72;21.73;;;1.20;99.90;;;;;;5061922;28;20109;-39
2023/01/20 11:50:04;;;;;;;45.15;21.75;;;1.20;99.90;;;;;;5062422;28;20047;-38
2023/01/20 11:52:38;;;;;;;47.35;22.45;;;1.00;99.90;;;;;;5062362;28;20044;-38
2023/01/20 11:55:08;;;;;;;47.15;22.58;;;1.00;99.90;;;;;;5061268;28;20053;-38
2023/01/20 11:57:36;;;;;;;47.08;22.08;;;1.00;99.90;;;;;;5061991;28;20049;-38
2023/01/20 12:00:03;;;;;;;43.30;21.05;;;1.20;99.90;;;;;;5062167;28;20751;-36
2023/01/20 12:02:29;;;;;;;45.80;22.55;;;1.00;99.90;;;;;;5053915;28;20041;-37
2023/01/20 12:05:27;;;;;;;47.28;21.98;;;1.10;99.90;;;;;;5061442;28;20708;-36
2023/01/20 12:07:55;;;;;;;44.42;21.65;;;0.80;99.90;;;;;;5043045;28;20074;-38
2023/01/20 12:10:25;;;;;;;42.40;20.17;;;1.10;99.90;;;;;;5061857;28;20044;-37
2023/01/20 12:12:57;;;;;;;45.13;21.33;;;1.00;99.90;;;;;;5061638;28;20490;-37
2023/01/20 12:15:33;;;;;;;41.83;20.35;;;1.20;99.90;;;;;;5061707;28;20051;-38
2023/01/20 12:18:06;;;;;;;42.95;20.27;;;1.10;99.90;;;;;;5061231;28;20074;-38
2023/01/20 12:20:46;;;;;;;44.65;20.20;;;1.30;99.90;;;;;;5061034;28;20485;-38
2023/01/20 12:23:49;;;;;;;43.90;19.20;;;1.10;99.90;;;;;;5043040;28;20040;-37
2023/01/20 12:26:18;;;;;;;38.65;18.98;;;0.90;99.90;;;;;;5060691;28;20064;-37
2023/01/20 12:28:53;;;;;;;38.53;17.33;;;1.00;99.90;;;;;;5061195;28;20040;-38
2023/01/20 12:31:22;;;;;;;45.70;19.58;;;1.00;99.90;;;;;;5061167;28;20048;-38
2023/01/20 12:34:05;;;;;;;42.10;19.75;;;1.10;99.90;;;;;;5060477;28;20162;-38
2023/01/20 12:36:49;;;;;;;44.92;20.92;;;0.90;99.90;;;;;;5061100;28;20045;-38
2023/01/20 12:39:44;;;;;;;41.63;19.90;;;0.90;99.90;;;;;;5060888;28;20083;-38
2023/01/20 12:42:29;;;;;;;40.95;19.27;;;0.90;99.90;;;;;;5051153;28;20067;-37
2023/01/20 12:45:11;;;;;;;40.00;18.42;;;0.90;99.90;;;;;;5060353;28;20052;-38
2023/01/20 12:48:16;;;;;;;44.03;18.98;;;1.30;99.90;;;;;;5060939;28;20535;-38
2023/01/20 12:50:54;;;;;;;37.33;17.73;;;0.90;99.90;;;;;;5060072;28;20048;-37
2023/01/20 12:53:54;;;;;;;36.60;18.30;;;0.90;99.90;;;;;;5060483;28;20049;-36
2023/01/20 12:56:39;;;;;;;41.17;18.15;;;1.00;99.90;;;;;;5060138;28;20158;-36
2023/01/20 12:59:37;;;;;;;36.67;18.52;;;1.10;99.90;;;;;;5060498;28;20094;-36
2023/01/20 13:02:11;;;;;;;35.22;17.35;;;1.00;99.90;;;;;;5051306;28;20054;-35
2023/01/20 13:04:55;;;;;;;38.88;17.98;;;1.10;99.90;;;;;;5060438;28;20062;-37